Time;durP1;ratioP1;P1;durP2;ratioP2;P2;SDS_P1;SDS_P2;PMS_P1;PMS_P2;Temp;Humidity;BMP_temperature;BMP_pressure;BME280_temperature;BME280_humidity;BME280_pressure;Samples;Min_cycle;Max_cycle;Signal;HPM_P1;HPM_P2
2021/01/19 00:02:01;;;;;;;10.68;3.90;;;2.00;99.90;;;;;;4931378;29;20423;-76
2021/01/19 00:04:27;;;;;;;13.93;4.53;;;2.00;99.90;;;;;;4932509;29;20143;-76
2021/01/19 00:06:54;;;;;;;12.02;4.82;;;2.00;99.90;;;;;;4931657;29;20112;-76
2021/01/19 00:09:20;;;;;;;8.73;4.68;;;2.00;99.90;;;;;;4931375;29;20084;-76
2021/01/19 00:11:46;;;;;;;10.77;3.95;;;2.00;99.90;;;;;;4931703;29;20573;-76
2021/01/19 00:14:13;;;;;;;14.02;4.13;;;2.10;99.90;;;;;;4929610;29;20138;-76
2021/01/19 00:16:39;;;;;;;14.38;5.85;;;2.00;99.90;;;;;;4915156;29;20244;-76
2021/01/19 00:19:05;;;;;;;8.65;4.07;;;2.00;99.90;;;;;;4931602;29;20123;-76
2021/01/19 00:21:32;;;;;;;10.57;3.70;;;1.90;99.90;;;;;;4932414;29;20475;-76
2021/01/19 00:23:58;;;;;;;9.10;4.22;;;2.00;99.90;;;;;;4931351;29;20051;-76
2021/01/19 00:26:24;;;;;;;16.73;4.47;;;2.00;99.90;;;;;;4931235;29;20052;-76
2021/01/19 00:28:51;;;;;;;10.45;3.78;;;2.00;99.90;;;;;;4931696;29;20070;-76
2021/01/19 00:31:17;;;;;;;9.45;4.28;;;2.00;99.90;;;;;;4931141;29;20518;-76
2021/01/19 00:33:43;;;;;;;13.98;5.18;;;2.10;99.90;;;;;;4931201;29;20075;-76
2021/01/19 00:36:10;;;;;;;6.93;2.92;;;2.00;99.90;;;;;;4932030;29;20051;-76
2021/01/19 00:38:36;;;;;;;14.63;3.72;;;2.00;99.90;;;;;;4931178;29;20087;-76
2021/01/19 00:41:02;;;;;;;10.07;4.07;;;2.00;99.90;;;;;;4932010;29;20047;-76
2021/01/19 00:43:29;;;;;;;11.43;4.25;;;2.00;99.90;;;;;;4931124;29;20502;-76
2021/01/19 00:45:56;;;;;;;11.50;3.67;;;2.00;99.90;;;;;;4932660;29;20082;-76
2021/01/19 00:48:23;;;;;;;12.48;4.10;;;2.00;99.90;;;;;;4932036;29;20074;-76
2021/01/19 00:50:49;;;;;;;9.90;3.83;;;2.00;99.90;;;;;;4932427;29;20482;-76
2021/01/19 00:53:15;;;;;;;9.55;4.93;;;2.00;99.90;;;;;;4931038;29;20137;-75
2021/01/19 00:55:41;;;;;;;15.90;6.43;;;2.00;99.90;;;;;;4928330;29;20048;-76
2021/01/19 00:58:08;;;;;;;14.73;4.40;;;2.00;99.90;;;;;;4931146;29;20048;-76
2021/01/19 01:00:34;;;;;;;14.63;4.68;;;2.00;99.90;;;;;;4931747;29;20047;-75
2021/01/19 01:03:01;;;;;;;12.35;5.47;;;2.00;99.90;;;;;;4931231;29;20122;-76
2021/01/19 01:05:28;;;;;;;11.43;4.05;;;2.10;99.90;;;;;;4931543;29;20075;-76
2021/01/19 01:07:54;;;;;;;12.52;4.22;;;2.10;99.90;;;;;;4929075;29;20499;-76
2021/01/19 01:10:20;;;;;;;13.95;4.20;;;2.10;99.90;;;;;;4931484;29;20100;-76
2021/01/19 01:12:46;;;;;;;10.80;4.28;;;2.10;99.90;;;;;;4931077;29;20107;-76
2021/01/19 01:15:17;;;;;;;13.32;4.15;;;2.00;99.90;;;;;;4931526;29;20455;-76
2021/01/19 01:17:43;;;;;;;10.13;3.55;;;2.00;99.90;;;;;;4930431;29;20116;-75
2021/01/19 01:20:11;;;;;;;12.68;3.65;;;2.00;99.90;;;;;;4931151;29;20075;-76
2021/01/19 01:22:47;;;;;;;13.73;4.90;;;2.00;99.90;;;;;;4931808;29;20119;-76
2021/01/19 01:25:16;;;;;;;15.85;5.22;;;2.00;99.90;;;;;;4945270;29;20056;-76
2021/01/19 01:27:43;;;;;;;15.38;5.50;;;2.00;99.90;;;;;;4929521;29;20190;-76
2021/01/19 01:30:12;;;;;;;14.32;5.03;;;2.00;99.90;;;;;;4926820;29;20075;-76
2021/01/19 01:32:43;;;;;;;8.90;3.78;;;1.90;99.90;;;;;;4931745;29;20171;-76
2021/01/19 01:35:11;;;;;;;18.30;4.43;;;1.90;99.90;;;;;;4935394;29;20094;-76
2021/01/19 01:37:48;;;;;;;16.40;5.97;;;1.90;99.90;;;;;;4935420;29;20220;-75
2021/01/19 01:40:24;;;;;;;11.45;4.47;;;1.90;99.90;;;;;;4933362;28;20039;-76
2021/01/19 01:42:52;;;;;;;13.60;4.80;;;1.90;99.90;;;;;;4933194;29;20131;-76
2021/01/19 01:45:21;;;;;;;11.07;4.07;;;1.90;99.90;;;;;;4935351;29;20147;-76
2021/01/19 01:47:50;;;;;;;13.15;3.45;;;1.90;99.90;;;;;;4932641;29;20118;-76
2021/01/19 01:50:18;;;;;;;10.20;4.00;;;1.90;99.90;;;;;;4932170;29;20143;-76
2021/01/19 01:52:45;;;;;;;8.32;2.70;;;2.00;99.90;;;;;;4934354;29;20142;-76
2021/01/19 01:55:14;;;;;;;13.73;3.20;;;2.00;99.90;;;;;;4936547;29;20506;-75
2021/01/19 01:57:41;;;;;;;12.80;3.60;;;2.00;99.90;;;;;;4929929;29;20040;-76
2021/01/19 02:00:10;;;;;;;16.42;3.38;;;1.90;99.90;;;;;;4932328;29;20075;-76
2021/01/19 02:02:54;;;;;;;5.70;2.40;;;1.90;99.90;;;;;;4933710;29;20059;-76
2021/01/19 02:05:26;;;;;;;6.45;3.05;;;2.00;99.90;;;;;;4935586;29;20047;-76
2021/01/19 02:08:25;;;;;;;10.02;2.72;;;1.90;99.90;;;;;;4928177;29;20048;-76
2021/01/19 02:11:33;;;;;;;10.77;3.35;;;1.90;99.90;;;;;;4930889;29;20514;-76
2021/01/19 02:14:15;;;;;;;10.88;2.90;;;1.80;99.90;;;;;;4928999;29;20493;-75
2021/01/19 02:16:56;;;;;;;11.93;2.78;;;1.80;99.90;;;;;;4930991;29;20130;-76
2021/01/19 02:19:47;;;;;;;11.13;3.70;;;1.90;99.90;;;;;;4933677;28;20525;-75
2021/01/19 02:22:29;;;;;;;12.27;3.70;;;1.80;99.90;;;;;;4932240;29;20062;-76
2021/01/19 02:25:17;;;;;;;11.70;3.35;;;1.80;99.90;;;;;;4934144;29;20073;-76
2021/01/19 02:27:49;;;;;;;9.05;3.20;;;1.80;99.90;;;;;;4932746;29;20139;-76
2021/01/19 02:30:34;;;;;;;7.35;2.80;;;1.90;99.90;;;;;;4932730;29;20139;-76
2021/01/19 02:33:10;;;;;;;7.88;3.00;;;1.80;99.90;;;;;;4932427;29;20044;-76
2021/01/19 02:35:48;;;;;;;9.43;2.75;;;1.80;99.90;;;;;;4934587;29;20070;-76
2021/01/19 02:38:39;;;;;;;12.05;3.67;;;1.90;99.90;;;;;;4927939;29;20049;-76
2021/01/19 02:41:06;;;;;;;9.05;2.80;;;1.90;99.90;;;;;;4927757;29;20126;-76
2021/01/19 02:43:37;;;;;;;7.18;2.78;;;1.90;99.90;;;;;;4930669;29;20516;-75
2021/01/19 02:46:03;;;;;;;10.40;3.83;;;1.90;99.90;;;;;;4931707;29;20051;-75
2021/01/19 02:48:29;;;;;;;10.18;2.40;;;1.80;99.90;;;;;;4930255;29;20139;-75
2021/01/19 02:50:56;;;;;;;9.18;3.05;;;1.80;99.90;;;;;;4932583;29;20095;-77
2021/01/19 02:53:23;;;;;;;11.77;2.97;;;1.90;99.90;;;;;;4931338;29;20075;-75
2021/01/19 02:55:51;;;;;;;12.75;3.40;;;1.90;99.90;;;;;;4931917;29;20051;-75
2021/01/19 02:58:47;;;;;;;12.85;3.22;;;2.00;99.90;;;;;;4930053;29;20134;-75
2021/01/19 03:01:20;;;;;;;7.80;2.65;;;2.00;99.90;;;;;;4941159;29;20074;-75
2021/01/19 03:03:49;;;;;;;10.00;2.25;;;2.00;99.90;;;;;;4932480;29;20405;-75
2021/01/19 03:06:19;;;;;;;14.43;4.20;;;1.90;99.90;;;;;;4929386;29;20078;-76
2021/01/19 03:08:48;;;;;;;14.30;3.15;;;2.00;99.90;;;;;;4931519;29;20044;-75
2021/01/19 03:11:16;;;;;;;9.73;2.80;;;2.00;99.90;;;;;;4927307;29;20068;-75
2021/01/19 03:13:47;;;;;;;10.52;3.53;;;2.00;99.90;;;;;;4931788;29;20181;-75
2021/01/19 03:16:16;;;;;;;6.82;2.85;;;2.00;99.90;;;;;;4930833;29;20142;-76
2021/01/19 03:18:46;;;;;;;9.30;3.40;;;1.90;99.90;;;;;;4937736;29;20126;-76
2021/01/19 03:21:13;;;;;;;7.68;2.75;;;1.90;99.90;;;;;;4930146;29;20079;-78
2021/01/19 03:23:40;;;;;;;9.35;2.53;;;1.90;99.90;;;;;;4930303;29;20439;-75
2021/01/19 03:26:08;;;;;;;12.77;2.53;;;2.00;99.90;;;;;;4930117;29;20525;-78
2021/01/19 03:28:35;;;;;;;8.75;2.58;;;1.90;99.90;;;;;;4928032;29;20051;-76
2021/01/19 03:31:02;;;;;;;8.68;3.38;;;1.90;99.90;;;;;;4931695;29;20589;-77
2021/01/19 03:33:30;;;;;;;11.98;3.40;;;1.90;99.90;;;;;;4931129;29;20099;-75
2021/01/19 03:35:57;;;;;;;10.43;3.33;;;1.90;99.90;;;;;;4931509;29;20139;-76
2021/01/19 03:38:23;;;;;;;12.10;4.22;;;1.90;99.90;;;;;;4930831;29;20175;-74
2021/01/19 03:40:50;;;;;;;10.15;3.20;;;2.00;99.90;;;;;;4931194;29;20440;-77
2021/01/19 03:43:16;;;;;;;14.77;2.92;;;2.00;99.90;;;;;;4928990;29;20083;-77
2021/01/19 03:45:42;;;;;;;13.95;4.60;;;1.90;99.90;;;;;;4930209;29;20136;-77
2021/01/19 03:48:09;;;;;;;11.15;3.53;;;2.00;99.90;;;;;;4931737;29;20048;-77
2021/01/19 03:50:36;;;;;;;13.95;4.25;;;1.90;99.90;;;;;;4934651;28;20054;-77
2021/01/19 03:53:03;;;;;;;13.60;4.05;;;1.90;99.90;;;;;;4931382;29;21501;-77
2021/01/19 03:55:31;;;;;;;6.63;2.50;;;2.00;99.90;;;;;;4931733;29;20490;-77
2021/01/19 03:58:00;;;;;;;7.82;2.97;;;1.90;99.90;;;;;;4928706;29;20051;-75
2021/01/19 04:00:30;;;;;;;9.80;3.63;;;1.90;99.90;;;;;;4928926;29;20329;-75
2021/01/19 04:02:56;;;;;;;18.50;4.00;;;1.90;99.90;;;;;;4930051;29;20115;-77
2021/01/19 04:05:23;;;;;;;8.60;3.15;;;1.90;99.90;;;;;;4927476;29;20494;-75
2021/01/19 04:07:50;;;;;;;12.82;3.42;;;1.90;99.90;;;;;;4930051;29;20130;-75
2021/01/19 04:10:16;;;;;;;12.00;3.97;;;1.90;99.90;;;;;;4930102;29;20062;-76
2021/01/19 04:12:46;;;;;;;8.70;3.45;;;1.90;99.90;;;;;;4930787;29;20055;-75
2021/01/19 04:15:12;;;;;;;8.13;3.58;;;1.90;99.90;;;;;;4930657;29;20047;-75
2021/01/19 04:17:40;;;;;;;10.45;2.58;;;1.90;99.90;;;;;;4928990;29;20048;-77
2021/01/19 04:20:08;;;;;;;12.13;3.45;;;1.80;99.90;;;;;;4930838;29;20048;-75
2021/01/19 04:22:35;;;;;;;11.93;3.42;;;1.80;99.90;;;;;;4930290;29;20043;-76
2021/01/19 04:25:02;;;;;;;12.13;4.78;;;1.90;99.90;;;;;;4934213;29;20118;-76
2021/01/19 04:27:29;;;;;;;13.88;3.40;;;1.80;99.90;;;;;;4930877;29;20135;-75
2021/01/19 04:29:56;;;;;;;10.68;4.18;;;1.90;99.90;;;;;;4929501;29;20485;-75
2021/01/19 04:32:23;;;;;;;14.65;4.47;;;1.90;99.90;;;;;;4930356;29;20054;-76
2021/01/19 04:34:49;;;;;;;11.90;4.75;;;1.90;99.90;;;;;;4931254;29;20044;-76
2021/01/19 04:37:15;;;;;;;9.25;3.35;;;1.90;99.90;;;;;;4943340;29;20449;-76
2021/01/19 04:39:42;;;;;;;11.77;3.42;;;1.90;99.90;;;;;;4923820;29;20160;-76
2021/01/19 04:42:09;;;;;;;15.38;3.60;;;1.90;99.90;;;;;;4930633;29;20044;-76
2021/01/19 04:44:37;;;;;;;10.65;3.45;;;2.00;99.90;;;;;;4925825;29;20057;-75
2021/01/19 04:47:04;;;;;;;10.32;4.70;;;2.00;99.90;;;;;;4929145;29;20495;-75
2021/01/19 04:49:32;;;;;;;10.95;3.72;;;1.90;99.90;;;;;;4932819;29;20071;-75
2021/01/19 04:52:04;;;;;;;12.02;3.72;;;1.90;99.90;;;;;;4930806;29;20122;-75
2021/01/19 04:54:49;;;;;;;16.63;3.38;;;1.90;99.90;;;;;;4931452;29;20130;-75
2021/01/19 04:57:20;;;;;;;11.43;3.75;;;1.90;99.90;;;;;;4929660;29;20040;-76
2021/01/19 04:59:53;;;;;;;12.15;3.97;;;1.90;99.90;;;;;;4928380;29;20048;-75
2021/01/19 05:02:54;;;;;;;16.38;4.15;;;1.80;99.90;;;;;;4929110;29;20139;-75
2021/01/19 05:05:36;;;;;;;12.10;4.13;;;1.80;99.90;;;;;;4929914;29;20086;-75
2021/01/19 05:08:02;;;;;;;10.00;4.20;;;1.80;99.90;;;;;;4931785;29;20539;-75
2021/01/19 05:10:34;;;;;;;16.15;4.93;;;1.70;99.90;;;;;;4933161;29;20405;-76
2021/01/19 05:13:11;;;;;;;11.55;3.95;;;1.80;99.90;;;;;;4927556;29;20067;-76
2021/01/19 05:15:44;;;;;;;10.27;3.95;;;1.70;99.90;;;;;;4932284;29;20183;-75
2021/01/19 05:18:17;;;;;;;11.13;4.30;;;1.70;99.90;;;;;;4932361;29;20044;-76
2021/01/19 05:20:49;;;;;;;18.85;4.00;;;1.80;99.90;;;;;;4935915;29;20420;-76
2021/01/19 05:23:21;;;;;;;14.98;4.93;;;1.70;99.90;;;;;;4932959;29;20122;-76
2021/01/19 05:25:54;;;;;;;12.70;4.37;;;1.70;99.90;;;;;;4930232;29;20525;-76
2021/01/19 05:28:40;;;;;;;11.88;3.92;;;1.70;99.90;;;;;;4924663;29;20087;-76
2021/01/19 05:31:16;;;;;;;17.33;4.65;;;1.80;99.90;;;;;;4936666;29;20192;-76
2021/01/19 05:33:51;;;;;;;16.73;4.90;;;1.80;99.90;;;;;;4933181;29;20138;-76
2021/01/19 05:36:37;;;;;;;11.80;4.18;;;1.80;99.90;;;;;;4929398;29;20084;-76
2021/01/19 05:39:06;;;;;;;10.30;3.97;;;1.80;99.90;;;;;;4934089;28;20518;-76
2021/01/19 05:41:44;;;;;;;9.13;4.40;;;1.70;99.90;;;;;;4933156;28;20051;-75
2021/01/19 05:44:20;;;;;;;17.35;4.65;;;1.70;99.90;;;;;;4946158;29;20055;-76
2021/01/19 05:46:51;;;;;;;12.88;3.70;;;1.60;99.90;;;;;;4933656;29;20051;-76
2021/01/19 05:49:23;;;;;;;15.88;5.90;;;1.70;99.90;;;;;;4932719;29;20119;-77
2021/01/19 05:51:54;;;;;;;14.57;5.20;;;1.70;99.90;;;;;;4933211;29;20047;-76
2021/01/19 05:54:24;;;;;;;11.52;5.28;;;1.70;99.90;;;;;;4933609;29;20044;-76
2021/01/19 05:56:51;;;;;;;14.57;5.20;;;1.60;99.90;;;;;;4933088;29;20134;-76
2021/01/19 05:59:35;;;;;;;17.05;5.10;;;1.60;99.90;;;;;;4931916;29;20056;-76
2021/01/19 06:02:04;;;;;;;18.77;5.47;;;1.70;99.90;;;;;;4932560;29;20562;-76
2021/01/19 06:04:32;;;;;;;10.02;3.70;;;1.70;99.90;;;;;;4946684;29;20127;-76
2021/01/19 06:06:59;;;;;;;9.68;3.45;;;1.60;99.90;;;;;;4933244;29;20481;-76
2021/01/19 06:09:26;;;;;;;12.18;4.25;;;1.70;99.90;;;;;;4937026;28;20078;-76
2021/01/19 06:11:57;;;;;;;9.38;3.20;;;1.70;99.90;;;;;;4926816;29;20047;-76
2021/01/19 06:14:28;;;;;;;13.00;4.50;;;1.70;99.90;;;;;;4928264;29;20143;-76
2021/01/19 06:17:08;;;;;;;10.38;2.78;;;1.60;99.90;;;;;;4918940;29;20138;-77
2021/01/19 06:19:36;;;;;;;13.50;3.47;;;1.60;99.90;;;;;;4935940;29;20066;-76
2021/01/19 06:22:11;;;;;;;7.65;3.70;;;1.60;99.90;;;;;;4931465;29;20435;-77
2021/01/19 06:24:40;;;;;;;14.90;4.63;;;1.70;99.90;;;;;;4919535;29;20056;-76
2021/01/19 06:27:08;;;;;;;13.77;4.20;;;1.60;99.90;;;;;;4928963;29;20447;-76
2021/01/19 06:29:35;;;;;;;14.15;3.63;;;1.70;99.90;;;;;;4930430;29;20247;-77
2021/01/19 06:32:03;;;;;;;11.10;4.10;;;1.70;99.90;;;;;;4942569;29;20594;-76
2021/01/19 06:34:32;;;;;;;16.33;4.25;;;1.60;99.90;;;;;;4931358;29;20047;-76
2021/01/19 06:37:00;;;;;;;10.07;3.55;;;1.70;99.90;;;;;;4918749;29;20135;-77
2021/01/19 06:39:44;;;;;;;13.77;4.38;;;1.70;99.90;;;;;;4931578;29;20044;-76
2021/01/19 06:42:14;;;;;;;14.20;4.18;;;1.70;99.90;;;;;;4931982;29;20477;-76
2021/01/19 06:44:50;;;;;;;12.90;4.18;;;1.70;99.90;;;;;;4928074;29;20131;-76
2021/01/19 06:47:20;;;;;;;5.82;2.58;;;1.70;99.90;;;;;;4930871;29;20447;-77
2021/01/19 06:50:06;;;;;;;10.48;3.55;;;1.70;99.90;;;;;;4928309;29;20044;-76
2021/01/19 06:52:41;;;;;;;11.27;4.00;;;1.70;99.90;;;;;;4935965;29;20142;-76
2021/01/19 06:55:21;;;;;;;10.65;3.55;;;1.70;99.90;;;;;;4930090;29;20518;-77
2021/01/19 06:58:22;;;;;;;10.38;4.35;;;1.70;99.90;;;;;;4929629;29;20092;-77
2021/01/19 07:00:59;;;;;;;11.93;3.75;;;1.60;99.90;;;;;;4932528;29;20205;-76
2021/01/19 07:03:25;;;;;;;9.60;3.15;;;1.60;99.90;;;;;;4930134;29;20163;-76
2021/01/19 07:06:11;;;;;;;12.55;4.38;;;1.60;99.90;;;;;;4930109;29;20056;-77
2021/01/19 07:08:59;;;;;;;11.43;3.92;;;1.60;99.90;;;;;;4929818;29;20143;-76
2021/01/19 07:11:37;;;;;;;12.50;4.22;;;1.60;99.90;;;;;;4928817;29;20056;-77
2021/01/19 07:14:12;;;;;;;14.80;3.67;;;1.70;99.90;;;;;;4932286;29;20075;-77
2021/01/19 07:17:05;;;;;;;11.57;3.35;;;1.60;99.90;;;;;;4931011;29;20504;-77
2021/01/19 07:19:45;;;;;;;12.10;3.85;;;1.70;99.90;;;;;;4930645;29;20161;-77
2021/01/19 07:22:24;;;;;;;13.48;3.13;;;1.60;99.90;;;;;;4931331;29;20455;-76
2021/01/19 07:24:51;;;;;;;11.35;4.30;;;1.70;99.90;;;;;;4930496;29;20055;-77
2021/01/19 07:27:20;;;;;;;10.20;3.38;;;1.70;99.90;;;;;;4930038;29;20059;-77
2021/01/19 07:29:47;;;;;;;14.70;4.00;;;1.70;99.90;;;;;;4930311;29;20078;-77
2021/01/19 07:32:20;;;;;;;11.00;3.60;;;1.70;99.90;;;;;;4929595;29;20052;-77
2021/01/19 07:34:48;;;;;;;8.50;3.08;;;1.70;99.90;;;;;;4929381;29;20213;-76
2021/01/19 07:37:15;;;;;;;12.95;3.30;;;1.70;99.90;;;;;;4930365;29;20624;-77
2021/01/19 07:39:41;;;;;;;10.55;3.45;;;1.80;99.90;;;;;;4930775;29;20078;-77
2021/01/19 07:42:15;;;;;;;7.45;2.67;;;1.90;99.90;;;;;;4927428;29;20059;-76
2021/01/19 07:44:55;;;;;;;11.60;3.05;;;1.80;99.90;;;;;;4932699;29;20154;-76
2021/01/19 07:47:21;;;;;;;11.35;3.58;;;1.90;99.90;;;;;;4933223;29;20130;-77
2021/01/19 07:49:47;;;;;;;9.35;2.85;;;1.80;99.90;;;;;;4928289;29;20581;-77
2021/01/19 07:52:15;;;;;;;12.77;3.63;;;1.90;99.90;;;;;;4932327;29;20585;-77
2021/01/19 07:54:42;;;;;;;10.20;3.05;;;1.90;99.90;;;;;;4932684;29;20138;-77
2021/01/19 07:57:09;;;;;;;9.52;2.50;;;1.90;99.90;;;;;;4929198;29;20052;-76
2021/01/19 07:59:37;;;;;;;11.30;3.30;;;2.00;99.90;;;;;;4929259;29;20082;-77
2021/01/19 08:02:03;;;;;;;12.32;3.40;;;2.00;99.90;;;;;;4929962;29;20086;-77
2021/01/19 08:04:37;;;;;;;9.35;2.78;;;2.00;99.90;;;;;;4932763;29;20052;-77
2021/01/19 08:07:19;;;;;;;11.85;3.05;;;2.00;99.90;;;;;;4922807;29;20150;-77
2021/01/19 08:09:46;;;;;;;13.70;3.35;;;2.00;99.90;;;;;;4945978;29;20059;-77
2021/01/19 08:12:17;;;;;;;12.48;3.80;;;2.00;99.90;;;;;;4923859;29;20052;-77
2021/01/19 08:14:51;;;;;;;8.48;2.30;;;2.10;99.90;;;;;;4930267;29;20085;-77
2021/01/19 08:17:18;;;;;;;12.57;3.72;;;2.00;99.90;;;;;;4929483;29;20055;-77
2021/01/19 08:19:45;;;;;;;7.05;2.47;;;2.00;99.90;;;;;;4931577;29;20047;-78
2021/01/19 08:22:13;;;;;;;7.20;2.40;;;2.00;99.90;;;;;;4929766;29;20576;-77
2021/01/19 08:24:44;;;;;;;8.10;2.78;;;2.00;99.90;;;;;;4929131;29;20522;-77
2021/01/19 08:27:11;;;;;;;13.38;2.63;;;2.10;99.90;;;;;;4925618;29;20114;-77
2021/01/19 08:29:38;;;;;;;21.30;3.67;;;2.00;99.90;;;;;;4931431;28;20044;-77
2021/01/19 08:32:07;;;;;;;13.25;3.17;;;2.00;99.90;;;;;;4930580;29;20043;-77
2021/01/19 08:34:36;;;;;;;6.38;2.35;;;2.00;99.90;;;;;;4933179;29;20078;-77
2021/01/19 08:37:03;;;;;;;8.35;2.72;;;2.10;99.90;;;;;;4929067;29;20048;-77
2021/01/19 08:39:29;;;;;;;11.88;3.50;;;2.10;99.90;;;;;;4929348;29;20052;-77
2021/01/19 08:41:57;;;;;;;12.93;2.78;;;2.10;99.90;;;;;;4934621;29;20055;-77
2021/01/19 08:44:32;;;;;;;9.25;2.83;;;2.20;99.90;;;;;;4932354;29;20058;-77
2021/01/19 08:46:59;;;;;;;4.53;2.00;;;2.30;99.90;;;;;;4933191;29;20051;-78
2021/01/19 08:49:33;;;;;;;9.73;3.60;;;2.30;99.90;;;;;;4938629;29;20478;-77
2021/01/19 08:52:00;;;;;;;8.55;2.53;;;2.30;99.90;;;;;;4943075;29;20099;-77
2021/01/19 08:54:31;;;;;;;7.28;2.53;;;2.30;99.90;;;;;;4936017;29;20083;-77
2021/01/19 08:56:57;;;;;;;12.95;3.28;;;2.30;99.90;;;;;;4933734;29;20478;-77
2021/01/19 08:59:37;;;;;;;10.05;2.58;;;2.40;99.90;;;;;;4932122;29;20103;-77
2021/01/19 09:02:03;;;;;;;12.48;2.63;;;2.40;99.90;;;;;;4940581;29;20064;-77
2021/01/19 09:04:31;;;;;;;6.78;2.45;;;2.50;99.90;;;;;;4934653;29;20095;-77
2021/01/19 09:07:08;;;;;;;9.40;2.28;;;2.40;99.90;;;;;;4938899;28;20048;-77
2021/01/19 09:09:35;;;;;;;10.23;2.10;;;2.40;99.90;;;;;;4934172;29;20510;-77
2021/01/19 09:12:02;;;;;;;8.93;2.53;;;2.40;99.90;;;;;;4933890;29;20086;-77
2021/01/19 09:14:28;;;;;;;10.77;2.70;;;2.40;99.90;;;;;;4940263;29;20135;-77
2021/01/19 09:16:55;;;;;;;10.38;2.88;;;2.30;99.90;;;;;;4924202;29;20143;-77
2021/01/19 09:19:23;;;;;;;8.32;2.85;;;2.30;99.90;;;;;;4933137;29;20146;-77
2021/01/19 09:21:50;;;;;;;9.15;3.15;;;2.40;99.90;;;;;;4933198;29;20043;-77
2021/01/19 09:24:21;;;;;;;15.20;3.47;;;2.40;99.90;;;;;;4930500;29;20131;-77
2021/01/19 09:27:01;;;;;;;8.93;2.40;;;2.40;99.90;;;;;;4934935;28;20374;-77
2021/01/19 09:29:30;;;;;;;7.88;2.30;;;2.30;99.90;;;;;;4932680;29;20047;-77
2021/01/19 09:31:59;;;;;;;11.82;2.60;;;2.40;99.90;;;;;;4917331;29;20067;-77
2021/01/19 09:34:26;;;;;;;10.02;2.17;;;2.40;99.90;;;;;;4930288;29;20499;-77
2021/01/19 09:36:54;;;;;;;5.45;1.85;;;2.40;99.90;;;;;;4932165;29;20131;-77
2021/01/19 09:39:40;;;;;;;6.45;1.80;;;2.50;99.90;;;;;;4931978;29;20526;-77
2021/01/19 09:42:07;;;;;;;11.18;2.13;;;2.50;99.90;;;;;;4933628;29;20502;-77
2021/01/19 09:44:36;;;;;;;9.93;2.97;;;2.50;99.90;;;;;;4938180;29;20114;-77
2021/01/19 09:47:05;;;;;;;8.93;2.53;;;2.50;99.90;;;;;;4938336;28;20126;-77
2021/01/19 09:49:36;;;;;;;8.80;2.03;;;2.60;99.90;;;;;;4935343;28;20056;-69
2021/01/19 09:52:10;;;;;;;7.65;2.80;;;2.70;99.90;;;;;;4932371;29;20055;-70
2021/01/19 09:54:37;;;;;;;9.50;2.13;;;2.70;99.90;;;;;;4924653;29;20087;-69
2021/01/19 09:57:04;;;;;;;6.03;2.63;;;2.70;99.90;;;;;;4933625;29;20259;-70
2021/01/19 09:59:32;;;;;;;7.35;1.95;;;2.80;99.90;;;;;;4937025;28;20044;-69
2021/01/19 10:01:59;;;;;;;12.18;2.30;;;2.80;99.90;;;;;;4934348;29;20143;-70
2021/01/19 10:04:29;;;;;;;8.93;1.92;;;2.80;99.90;;;;;;4929985;29;20078;-69
2021/01/19 10:07:02;;;;;;;10.15;2.78;;;2.70;99.90;;;;;;4931699;29;20109;-70
2021/01/19 10:09:28;;;;;;;17.25;3.28;;;2.80;99.90;;;;;;4934021;29;20134;-70
2021/01/19 10:11:56;;;;;;;7.93;1.98;;;2.80;99.90;;;;;;4932107;29;20095;-70
2021/01/19 10:14:31;;;;;;;11.38;2.55;;;2.90;99.90;;;;;;4933533;29;20396;-70
2021/01/19 10:16:58;;;;;;;6.90;1.70;;;2.80;99.90;;;;;;4926214;29;20099;-70
2021/01/19 10:19:33;;;;;;;14.25;3.45;;;2.80;99.90;;;;;;4918627;29;20059;-70
2021/01/19 10:22:10;;;;;;;6.63;2.10;;;2.70;99.90;;;;;;4925708;29;20111;-69
2021/01/19 10:24:46;;;;;;;3.53;1.90;;;2.70;99.90;;;;;;4924465;29;20146;-69
2021/01/19 10:27:12;;;;;;;7.43;2.53;;;2.60;99.90;;;;;;4937370;29;20452;-70
2021/01/19 10:29:43;;;;;;;6.10;2.08;;;2.60;99.90;;;;;;4937040;29;20534;-70
2021/01/19 10:32:16;;;;;;;8.23;2.30;;;2.50;99.90;;;;;;4934067;29;20048;-70
2021/01/19 10:34:45;;;;;;;11.52;2.63;;;2.40;99.90;;;;;;4931712;29;20050;-70
2021/01/19 10:37:12;;;;;;;9.18;2.90;;;2.40;99.90;;;;;;4927984;29;20478;-69
2021/01/19 10:39:51;;;;;;;9.70;2.42;;;2.30;99.90;;;;;;4931686;29;20051;-70
2021/01/19 10:42:24;;;;;;;4.95;1.95;;;2.30;99.90;;;;;;4929128;29;20133;-69
2021/01/19 10:45:01;;;;;;;11.35;2.40;;;2.30;99.90;;;;;;4932705;29;20630;-70
2021/01/19 10:47:43;;;;;;;11.95;2.25;;;2.30;99.90;;;;;;4929431;29;20111;-71
2021/01/19 10:50:18;;;;;;;8.60;1.70;;;2.30;99.90;;;;;;4926538;29;20067;-70
2021/01/19 10:52:58;;;;;;;10.63;2.75;;;2.30;99.90;;;;;;4929074;29;20115;-71
2021/01/19 10:55:26;;;;;;;6.78;2.58;;;2.20;99.90;;;;;;4945193;29;20051;-70
2021/01/19 10:57:57;;;;;;;11.20;2.58;;;2.30;99.90;;;;;;4946987;28;20102;-70
2021/01/19 11:00:27;;;;;;;8.48;2.67;;;2.30;99.90;;;;;;4926454;29;20047;-71
2021/01/19 11:02:55;;;;;;;8.98;2.47;;;2.20;99.90;;;;;;4936297;29;20059;-70
2021/01/19 11:05:22;;;;;;;10.57;2.92;;;2.30;99.90;;;;;;4928133;29;20084;-70
2021/01/19 11:07:51;;;;;;;9.93;3.03;;;2.40;99.90;;;;;;4927674;29;20048;-70
2021/01/19 11:10:19;;;;;;;6.80;2.50;;;2.30;99.90;;;;;;4922945;29;20048;-70
2021/01/19 11:12:46;;;;;;;10.27;3.25;;;2.10;99.90;;;;;;4916977;29;20047;-70
2021/01/19 11:15:14;;;;;;;9.68;3.28;;;2.20;99.90;;;;;;4929953;29;20502;-70
2021/01/19 11:17:41;;;;;;;9.20;3.05;;;2.20;99.90;;;;;;4929317;29;20100;-69
2021/01/19 11:20:10;;;;;;;11.57;3.35;;;2.20;99.90;;;;;;4922621;29;20522;-71
2021/01/19 11:22:37;;;;;;;8.40;3.33;;;2.10;99.90;;;;;;4943359;29;20383;-70
2021/01/19 11:25:04;;;;;;;8.02;2.92;;;2.00;99.90;;;;;;4927951;29;20055;-70
2021/01/19 11:27:31;;;;;;;7.80;3.22;;;1.90;99.90;;;;;;4932606;29;20126;-71
2021/01/19 11:29:57;;;;;;;10.75;4.30;;;1.90;99.90;;;;;;4932527;29;20064;-70
2021/01/19 11:32:25;;;;;;;15.60;3.78;;;2.00;99.90;;;;;;4932840;29;20132;-70
2021/01/19 11:34:52;;;;;;;11.77;3.83;;;1.90;99.90;;;;;;4919158;29;20063;-69
2021/01/19 11:37:18;;;;;;;17.05;3.60;;;2.00;99.90;;;;;;4921517;29;20054;-70
2021/01/19 11:39:45;;;;;;;11.43;3.42;;;1.90;99.90;;;;;;4932065;29;20118;-70
2021/01/19 11:42:11;;;;;;;6.75;3.05;;;1.90;99.90;;;;;;4927992;29;20521;-70
2021/01/19 11:44:37;;;;;;;15.27;5.40;;;1.80;99.90;;;;;;4927990;29;20048;-70
2021/01/19 11:47:04;;;;;;;6.45;2.63;;;1.90;99.90;;;;;;4926182;29;20063;-70
2021/01/19 11:49:45;;;;;;;8.75;2.45;;;1.90;99.90;;;;;;4925407;29;20059;-70
2021/01/19 11:52:12;;;;;;;12.05;3.58;;;1.90;99.90;;;;;;4920409;29;20063;-71
2021/01/19 11:54:38;;;;;;;9.20;2.90;;;1.90;99.90;;;;;;4931768;29;20142;-70
2021/01/19 11:57:05;;;;;;;9.93;3.55;;;1.90;99.90;;;;;;4930965;29;20424;-70
2021/01/19 11:59:31;;;;;;;5.15;2.95;;;1.90;99.90;;;;;;4931525;29;20052;-70
2021/01/19 12:01:58;;;;;;;13.55;4.47;;;1.90;99.90;;;;;;4928386;29;20083;-71
2021/01/19 12:04:25;;;;;;;9.02;3.40;;;1.90;99.90;;;;;;4929397;29;20059;-70
2021/01/19 12:06:51;;;;;;;11.10;2.50;;;1.80;99.90;;;;;;4931434;29;20438;-70
2021/01/19 12:09:18;;;;;;;16.30;4.13;;;1.80;99.90;;;;;;4931750;29;20110;-70
2021/01/19 12:11:54;;;;;;;13.85;4.18;;;1.80;99.90;;;;;;4931364;29;20066;-70
2021/01/19 12:14:22;;;;;;;5.60;2.35;;;1.80;99.90;;;;;;4930655;29;20048;-70
2021/01/19 12:16:57;;;;;;;6.03;2.40;;;1.70;99.90;;;;;;4929224;29;20051;-70
2021/01/19 12:19:25;;;;;;;12.85;4.75;;;1.70;99.90;;;;;;4925020;29;20422;-71
2021/01/19 12:21:54;;;;;;;9.95;3.15;;;1.70;99.90;;;;;;4924265;29;20130;-70
2021/01/19 12:24:21;;;;;;;7.30;3.33;;;1.60;99.90;;;;;;4929294;29;20577;-70
2021/01/19 12:26:49;;;;;;;5.65;2.97;;;1.70;99.90;;;;;;4926911;29;20052;-70
2021/01/19 12:29:17;;;;;;;13.27;3.38;;;1.70;99.90;;;;;;4931200;29;20592;-70
2021/01/19 12:31:44;;;;;;;12.10;3.90;;;1.60;99.90;;;;;;4930528;29;20047;-70
2021/01/19 12:34:11;;;;;;;6.97;3.03;;;1.60;99.90;;;;;;4945923;28;20218;-70
2021/01/19 12:36:37;;;;;;;10.48;4.05;;;1.70;99.90;;;;;;4931546;29;20255;-70
2021/01/19 12:39:04;;;;;;;6.40;3.30;;;1.60;99.90;;;;;;4930935;29;20052;-70
2021/01/19 12:41:33;;;;;;;7.15;3.42;;;1.60;99.90;;;;;;4931408;29;20044;-70
2021/01/19 12:44:08;;;;;;;11.90;4.00;;;1.60;99.90;;;;;;4927586;29;20498;-70
2021/01/19 12:46:35;;;;;;;10.35;2.97;;;1.60;99.90;;;;;;4927032;29;20082;-70
2021/01/19 12:49:01;;;;;;;8.50;3.13;;;1.60;99.90;;;;;;4945477;28;20107;-70
2021/01/19 12:51:28;;;;;;;6.68;3.47;;;1.60;99.90;;;;;;4931273;29;20081;-70
2021/01/19 12:53:54;;;;;;;13.10;4.13;;;1.60;99.90;;;;;;4930506;29;20087;-70
2021/01/19 12:56:22;;;;;;;9.50;4.10;;;1.50;99.90;;;;;;4930157;29;20165;-70
2021/01/19 12:58:48;;;;;;;7.68;3.67;;;1.60;99.90;;;;;;4930959;29;20474;-71
2021/01/19 13:01:15;;;;;;;9.05;3.88;;;1.50;99.90;;;;;;4928351;29;20107;-70
2021/01/19 13:03:42;;;;;;;7.13;3.17;;;1.50;99.90;;;;;;4928909;29;20389;-69
2021/01/19 13:06:10;;;;;;;11.00;4.30;;;1.50;99.90;;;;;;4929924;29;20150;-70
2021/01/19 13:08:37;;;;;;;7.80;3.35;;;1.50;99.90;;;;;;4931161;29;20095;-70